Initiator D — V7LL8 — position and weather

sailwx.info

Track history (hours):
 
Tides and Currents Weather Stations Pressure Air Temp Water Temp Dewpoint Dewpoint Depression Visibility Wind Speed Wind Dir Waves Ship Positions

Initiator D

Last reported at 2018-May-20 16:59 UTC. Time now 2018-May-20 17:13 UTC.
Position N 45°07' E 036°35'.

Length 190 m; draft 6.4 m.

Type: Ship. MMSI: 538006296.

Date/timePositionNaut miles runAvg speedWind from/ knotsBaromVisibWave heightAir tempDewpointWater temp
2018-May-20 16:59N 45°07' E 036°35'0 0.2
2018-May-20 16:26N 45°07' E 036°35'0 0.4
2018-May-20 15:59N 45°07' E 036°36'0 0.0
2018-May-20 15:29N 45°07' E 036°36'0 0.0
2018-May-20 14:59N 45°07' E 036°36'0 0.0
2018-May-20 14:29N 45°07' E 036°36'0 0.0
2018-May-20 13:59N 45°07' E 036°36'0 0.1
2018-May-20 13:29N 45°07' E 036°35'0 0.1
2018-May-20 12:59N 45°07' E 036°36'0 0.0
2018-May-20 12:29N 45°07' E 036°36'0 0.0
2018-May-20 11:56N 45°07' E 036°36'0 0.1
2018-May-20 11:26N 45°07' E 036°36'0 0.0
2018-May-20 10:59N 45°07' E 036°36'0 0.0
2018-May-20 10:29N 45°07' E 036°36'0 0.1
2018-May-20 09:59N 45°07' E 036°36'0 0.0
2018-May-20 09:29N 45°07' E 036°36'0 0.1
2018-May-20 08:59N 45°07' E 036°35'0 0.1
2018-May-20 08:29N 45°07' E 036°35'0 0.1
2018-May-20 07:59N 45°07' E 036°35'0 0.0
2018-May-20 07:29N 45°07' E 036°35'0 0.0
2018-May-20 06:59N 45°07' E 036°35'0 0.0
2018-May-20 06:20N 45°07' E 036°35'0 0.2
2018-May-20 05:59N 45°07' E 036°35'0 0.2
2018-May-20 05:23N 45°07' E 036°35'0 0.0
2018-May-20 04:59N 45°07' E 036°35'0 0.1
2018-May-20 04:26N 45°07' E 036°35'0 0.1
2018-May-20 03:53N 45°07' E 036°35'0 0.1
2018-May-20 03:29N 45°07' E 036°35'0 0.0
2018-May-20 02:53N 45°07' E 036°35'0 0.0
2018-May-20 01:44N 45°07' E 036°35'0 0.0
2018-May-20 01:20N 45°07' E 036°35'0 0.1
2018-May-20 00:59N 45°07' E 036°35'0 0.1
2018-May-20 00:29N 45°07' E 036°35'0 0.1
2018-May-19 23:59N 45°07' E 036°35'0 0.2
2018-May-19 23:26N 45°07' E 036°35'1 1.7
2018-May-19 23:00N 45°06' E 036°34'2 3.5
2018-May-19 22:29N 45°05' E 036°33'3 6.0
2018-May-19 22:00N 45°02' E 036°31'4 7.0
2018-May-19 21:23N 44°58' E 036°31'3 7.9
2018-May-19 21:00N 44°55' E 036°32'812.7
2018-May-19 20:22N 44°47' E 036°32'513.4
2018-May-19 20:01N 44°42' E 036°32'713.2
2018-May-19 19:30N 44°35' E 036°32'713.4
2018-May-19 18:59N 44°28' E 036°32'1313.5
2018-May-19 18:00N 44°15' E 036°32'813.7
2018-May-19 17:26N 44°11' E 036°22'613.9
2018-May-19 16:59N 44°08' E 036°15'713.6
2018-May-19 16:28N 44°05' E 036°06'1313.6
2018-May-19 15:29N 43°59' E 035°50'713.6
2018-May-19 14:59N 43°55' E 035°42'613.5
2018-May-19 14:30N 43°52' E 035°34'713.6
2018-May-19 13:59N 43°49' E 035°25'713.6
2018-May-19 13:30N 43°46' E 035°17'713.5
2018-May-19 13:00N 43°42' E 035°09'713.3
2018-May-19 12:30N 43°39' E 035°01'613.3
2018-May-19 12:00N 43°36' E 034°53'713.2
2018-May-19 11:30N 43°33' E 034°45'713.7
2018-May-19 11:00N 43°30' E 034°37'44311.5
2018-May-17 20:38N 39°56' E 025°57'212.3
2018-May-17 20:31N 39°54' E 025°56'712.8
2018-May-17 19:59N 39°49' E 025°50'613.0
2018-May-17 19:30N 39°43' E 025°49'713.6
2018-May-17 19:01N 39°36' E 025°47'119 8.1
2018-May-17 04:24N 37°37' E 025°53'614.1
2018-May-17 04:00N 37°32' E 025°51'712.9
2018-May-17 03:30N 37°26' E 025°53'16613.6
2018-May-16 15:16N 35°18' E 028°04'413.9
2018-May-16 15:00N 35°15' E 028°07'713.9
2018-May-16 14:30N 35°10' E 028°13'3213.7
2018-May-16 12:10N 34°46' E 028°39'213.8
2018-May-16 12:00N 34°44' E 028°41'713.8
2018-May-16 11:28N 34°39' E 028°47'9813.9
2018-May-16 04:24N 33°26' E 030°06'513.8
2018-May-16 04:00N 33°22' E 030°11'713.7
2018-May-16 03:31N 33°17' E 030°16'813.8
2018-May-16 02:57N 33°11' E 030°22'614.0
2018-May-16 02:30N 33°07' E 030°27'714.1
2018-May-16 02:00N 33°01' E 030°33'3813.6
2018-May-15 23:12N 32°33' E 031°03'613.0
2018-May-15 22:43N 32°28' E 031°08'313.2
2018-May-15 22:30N 32°26' E 031°10'2513.5
2018-May-15 20:42N 32°08' E 031°30'2213.8
2018-May-15 19:08N 31°52' E 031°47'513.8
2018-May-15 18:47N 31°50' E 031°52'  
Track history (hours):
 
Tides and Currents Weather Stations Pressure Air Temp Water Temp Dewpoint Dewpoint Depression Visibility Wind Speed Wind Dir Waves Ship Positions

Initiator D

Last reported at 2018-May-20 16:59 UTC. Time now 2018-May-20 17:13 UTC.
Position N 45°07' E 036°35'.

Length 190 m; draft 6.4 m.

Type: Ship. MMSI: 538006296.

Date/timePositionNaut miles runAvg speedWind from/ knotsBaromVisibWave heightAir tempDewpointWater temp
2018-May-20 16:59N 45°07' E 036°35'0 0.2
2018-May-20 16:26N 45°07' E 036°35'0 0.4
2018-May-20 15:59N 45°07' E 036°36'0 0.0
2018-May-20 15:29N 45°07' E 036°36'0 0.0
2018-May-20 14:59N 45°07' E 036°36'0 0.0
2018-May-20 14:29N 45°07' E 036°36'0 0.0
2018-May-20 13:59N 45°07' E 036°36'0 0.1
2018-May-20 13:29N 45°07' E 036°35'0 0.1
2018-May-20 12:59N 45°07' E 036°36'0 0.0
2018-May-20 12:29N 45°07' E 036°36'0 0.0
2018-May-20 11:56N 45°07' E 036°36'0 0.1
2018-May-20 11:26N 45°07' E 036°36'0 0.0
2018-May-20 10:59N 45°07' E 036°36'0 0.0
2018-May-20 10:29N 45°07' E 036°36'0 0.1
2018-May-20 09:59N 45°07' E 036°36'0 0.0
2018-May-20 09:29N 45°07' E 036°36'0 0.1
2018-May-20 08:59N 45°07' E 036°35'0 0.1
2018-May-20 08:29N 45°07' E 036°35'0 0.1
2018-May-20 07:59N 45°07' E 036°35'0 0.0
2018-May-20 07:29N 45°07' E 036°35'0 0.0
2018-May-20 06:59N 45°07' E 036°35'0 0.0
2018-May-20 06:20N 45°07' E 036°35'0 0.2
2018-May-20 05:59N 45°07' E 036°35'0 0.2
2018-May-20 05:23N 45°07' E 036°35'0 0.0
2018-May-20 04:59N 45°07' E 036°35'0 0.1
2018-May-20 04:26N 45°07' E 036°35'0 0.1
2018-May-20 03:53N 45°07' E 036°35'0 0.1
2018-May-20 03:29N 45°07' E 036°35'0 0.0
2018-May-20 02:53N 45°07' E 036°35'0 0.0
2018-May-20 01:44N 45°07' E 036°35'0 0.0
2018-May-20 01:20N 45°07' E 036°35'0 0.1
2018-May-20 00:59N 45°07' E 036°35'0 0.1
2018-May-20 00:29N 45°07' E 036°35'0 0.1
2018-May-19 23:59N 45°07' E 036°35'0 0.2
2018-May-19 23:26N 45°07' E 036°35'1 1.7
2018-May-19 23:00N 45°06' E 036°34'2 3.5
2018-May-19 22:29N 45°05' E 036°33'3 6.0
2018-May-19 22:00N 45°02' E 036°31'4 7.0
2018-May-19 21:23N 44°58' E 036°31'3 7.9
2018-May-19 21:00N 44°55' E 036°32'812.7
2018-May-19 20:22N 44°47' E 036°32'513.4
2018-May-19 20:01N 44°42' E 036°32'713.2
2018-May-19 19:30N 44°35' E 036°32'713.4
2018-May-19 18:59N 44°28' E 036°32'1313.5
2018-May-19 18:00N 44°15' E 036°32'813.7
2018-May-19 17:26N 44°11' E 036°22'613.9
2018-May-19 16:59N 44°08' E 036°15'713.6
2018-May-19 16:28N 44°05' E 036°06'1313.6
2018-May-19 15:29N 43°59' E 035°50'713.6
2018-May-19 14:59N 43°55' E 035°42'613.5
2018-May-19 14:30N 43°52' E 035°34'713.6
2018-May-19 13:59N 43°49' E 035°25'713.6
2018-May-19 13:30N 43°46' E 035°17'713.5
2018-May-19 13:00N 43°42' E 035°09'713.3
2018-May-19 12:30N 43°39' E 035°01'613.3
2018-May-19 12:00N 43°36' E 034°53'713.2
2018-May-19 11:30N 43°33' E 034°45'713.7
2018-May-19 11:00N 43°30' E 034°37'44311.5
2018-May-17 20:38N 39°56' E 025°57'212.3
2018-May-17 20:31N 39°54' E 025°56'712.8
2018-May-17 19:59N 39°49' E 025°50'613.0
2018-May-17 19:30N 39°43' E 025°49'713.6
2018-May-17 19:01N 39°36' E 025°47'119 8.1
2018-May-17 04:24N 37°37' E 025°53'614.1
2018-May-17 04:00N 37°32' E 025°51'712.9
2018-May-17 03:30N 37°26' E 025°53'16613.6
2018-May-16 15:16N 35°18' E 028°04'413.9
2018-May-16 15:00N 35°15' E 028°07'713.9
2018-May-16 14:30N 35°10' E 028°13'3213.7
2018-May-16 12:10N 34°46' E 028°39'213.8
2018-May-16 12:00N 34°44' E 028°41'713.8
2018-May-16 11:28N 34°39' E 028°47'9813.9
2018-May-16 04:24N 33°26' E 030°06'513.8
2018-May-16 04:00N 33°22' E 030°11'713.7
2018-May-16 03:31N 33°17' E 030°16'813.8
2018-May-16 02:57N 33°11' E 030°22'614.0
2018-May-16 02:30N 33°07' E 030°27'714.1
2018-May-16 02:00N 33°01' E 030°33'3813.6
2018-May-15 23:12N 32°33' E 031°03'613.0
2018-May-15 22:43N 32°28' E 031°08'313.2
2018-May-15 22:30N 32°26' E 031°10'2513.5
2018-May-15 20:42N 32°08' E 031°30'2213.8
2018-May-15 19:08N 31°52' E 031°47'513.8
2018-May-15 18:47N 31°50' E 031°52'  

Dump ship's entire track history